Time;durP1;ratioP1;P1;durP2;ratioP2;P2;SDS_P1;SDS_P2;PMS_P1;PMS_P2;Temp;Humidity;BMP_temperature;BMP_pressure;BME280_temperature;BME280_humidity;BME280_pressure;Samples;Min_cycle;Max_cycle;Signal;HPM_P1;HPM_P2
2023/05/21 00:00:19;;;;;;;;;;;;;;;;;;2211676;59;2151;-19
2023/05/21 00:02:50;;;;;;;;;;;;;;;;;;2213017;58;2661;-20
2023/05/21 00:05:20;;;;;;;;;;;;;;;;;;2211322;66;2808;-19
2023/05/21 00:07:52;;;;;;;;;;;;;;;;;;2211091;66;2755;-20
2023/05/21 00:10:22;;;;;;;;;;;;;;;;;;2210194;58;2544;-19
2023/05/21 00:12:52;;;;;;;;;;;;;;;;;;2211786;67;2124;-19
2023/05/21 00:15:22;;;;;;;;;;;;;;;;;;2210240;59;2251;-19
2023/05/21 00:17:53;;;;;;;;;;;;;;;;;;2210713;66;3812;-19
2023/05/21 00:20:23;;;;;;;;;;;;;;;;;;2210955;66;2686;-20
2023/05/21 00:22:53;;;;;;;;;;;;;;;;;;2211858;67;2274;-20
2023/05/21 00:25:24;;;;;;;;;;;;;;;;;;2210882;66;2587;-20
2023/05/21 00:27:54;;;;;;;;;;;;;;;;;;2211498;66;3064;-20
2023/05/21 00:30:24;;;;;;;;;;;;;;;;;;2211391;67;2881;-20
2023/05/21 00:32:57;;;;;;;;;;;;;;;;;;2211308;66;2241;-20
2023/05/21 00:35:28;;;;;;;;;;;;;;;;;;2211517;67;2880;-20
2023/05/21 00:37:58;;;;;;;;;;;;;;;;;;2210867;59;2413;-20
2023/05/21 00:40:29;;;;;;;;;;;;;;;;;;2212298;66;2248;-20
2023/05/21 00:42:59;;;;;;;;;;;;;;;;;;2211984;67;2724;-20
2023/05/21 00:45:29;;;;;;;;;;;;;;;;;;2212138;67;2716;-20
2023/05/21 00:48:01;;;;;;;;;;;;;;;;;;2210484;59;2944;-20
2023/05/21 00:50:31;;;;;;;;;;;;;;;;;;2211733;59;2605;-19
2023/05/21 00:53:02;;;;;;;;;;;;;;;;;;2212575;59;2612;-20
2023/05/21 00:55:32;;;;;;;;;;;;;;;;;;2211678;59;2738;-20
2023/05/21 00:58:03;;;;;;;;;;;;;;;;;;2211064;67;2805;-20
2023/05/21 01:00:34;;;;;;;;;;;;;;;;;;2211564;59;2010;-19
2023/05/21 01:03:05;;;;;;;;;;;;;;;;;;2212008;59;3002;-20
2023/05/21 01:05:36;;;;;;;;;;;;;;;;;;2211612;66;3041;-20
2023/05/21 01:08:09;;;;;;;;;;;;;;;;;;2210095;67;2849;-20
2023/05/21 01:10:39;;;;;;;;;;;;;;;;;;2210752;66;2802;-20
2023/05/21 01:13:10;;;;;;;;;;;;;;;;;;2211430;67;2218;-20
2023/05/21 01:15:40;;;;;;;;;;;;;;;;;;2211464;67;2320;-21
2023/05/21 01:18:13;;;;;;;;;;;;;;;;;;2210855;67;3072;-20
2023/05/21 01:20:46;;;;;;;;;;;;;;;;;;2211902;67;3060;-20
2023/05/21 01:23:17;;;;;;;;;;;;;;;;;;2211407;66;2793;-20
2023/05/21 01:25:47;;;;;;;;;;;;;;;;;;2210146;67;2480;-21
2023/05/21 01:28:18;;;;;;;;;;;;;;;;;;2211170;67;2555;-20
2023/05/21 01:30:48;;;;;;;;;;;;;;;;;;2211309;66;2040;-20
2023/05/21 01:33:23;;;;;;;;;;;;;;;;;;2211387;67;2077;-19
2023/05/21 01:36:01;;;;;;;;;;;;;;;;;;2210485;59;2771;-19
2023/05/21 01:38:52;;;;;;;;;;;;;;;;;;2210495;59;1982;-20
2023/05/21 01:41:25;;;;;;;;;;;;;;;;;;2211139;58;2072;-20
2023/05/21 01:43:55;;;;;;;;;;;;;;;;;;2210542;66;2779;-20
2023/05/21 01:46:27;;;;;;;;;;;;;;;;;;2210318;59;2900;-19
2023/05/21 01:48:58;;;;;;;;;;;;;;;;;;2210600;66;2557;-20
2023/05/21 01:51:29;;;;;;;;;;;;;;;;;;2211631;59;2621;-20
2023/05/21 01:53:59;;;;;;;;;;;;;;;;;;2210358;59;2777;-20
2023/05/21 01:56:32;;;;;;;;;;;;;;;;;;2210711;66;1997;-19
2023/05/21 01:59:02;;;;;;;;;;;;;;;;;;2211521;59;2132;-19
2023/05/21 02:01:33;;;;;;;;;;;;;;;;;;2211345;59;2500;-20
2023/05/21 02:04:03;;;;;;;;;;;;;;;;;;2212490;67;2517;-20
2023/05/21 02:06:34;;;;;;;;;;;;;;;;;;2210204;67;3123;-20
2023/05/21 02:09:05;;;;;;;;;;;;;;;;;;2211770;66;2568;-20
2023/05/21 02:11:35;;;;;;;;;;;;;;;;;;2210664;66;2626;-20
2023/05/21 02:14:06;;;;;;;;;;;;;;;;;;2211841;67;3216;-20
2023/05/21 02:16:40;;;;;;;;;;;;;;;;;;2209375;59;2844;-20
2023/05/21 02:19:11;;;;;;;;;;;;;;;;;;2210892;66;3316;-19
2023/05/21 02:21:41;;;;;;;;;;;;;;;;;;2208614;59;2874;-20
2023/05/21 02:24:12;;;;;;;;;;;;;;;;;;2211159;67;2650;-20
2023/05/21 02:26:43;;;;;;;;;;;;;;;;;;2210455;66;3133;-20
2023/05/21 02:29:13;;;;;;;;;;;;;;;;;;2211676;66;2852;-20
2023/05/21 02:31:43;;;;;;;;;;;;;;;;;;2211454;66;2833;-20
2023/05/21 02:34:13;;;;;;;;;;;;;;;;;;2210922;67;2148;-20
2023/05/21 02:36:43;;;;;;;;;;;;;;;;;;2211367;59;2372;-20
2023/05/21 02:39:17;;;;;;;;;;;;;;;;;;2210632;59;3293;-19
2023/05/21 02:41:47;;;;;;;;;;;;;;;;;;2211497;67;2738;-20
2023/05/21 02:44:19;;;;;;;;;;;;;;;;;;2211433;66;2722;-20
2023/05/21 02:46:49;;;;;;;;;;;;;;;;;;2210140;59;3041;-20
2023/05/21 02:49:20;;;;;;;;;;;;;;;;;;2209951;58;2586;-20
2023/05/21 02:51:50;;;;;;;;;;;;;;;;;;2210029;59;1886;-20
2023/05/21 02:54:20;;;;;;;;;;;;;;;;;;2210445;59;2304;-19
2023/05/21 02:56:51;;;;;;;;;;;;;;;;;;2209280;66;2676;-19
2023/05/21 02:59:21;;;;;;;;;;;;;;;;;;2210406;59;3008;-20
2023/05/21 03:01:54;;;;;;;;;;;;;;;;;;2210612;59;1963;-20
2023/05/21 03:04:27;;;;;;;;;;;;;;;;;;2210501;66;2802;-20
2023/05/21 03:07:00;;;;;;;;;;;;;;;;;;2209270;59;2713;-20
2023/05/21 03:09:31;;;;;;;;;;;;;;;;;;2211107;67;2193;-19
2023/05/21 03:12:01;;;;;;;;;;;;;;;;;;2211596;67;2541;-20
2023/05/21 03:14:31;;;;;;;;;;;;;;;;;;2210677;66;2800;-20
2023/05/21 03:17:04;;;;;;;;;;;;;;;;;;2210201;66;2969;-19
2023/05/21 03:19:35;;;;;;;;;;;;;;;;;;2211080;66;2809;-19
2023/05/21 03:22:05;;;;;;;;;;;;;;;;;;2211702;67;1816;-20
2023/05/21 03:24:40;;;;;;;;;;;;;;;;;;2210105;67;2974;-19
2023/05/21 03:27:10;;;;;;;;;;;;;;;;;;2211225;67;2171;-19
2023/05/21 03:29:42;;;;;;;;;;;;;;;;;;2210554;66;1298;-19
2023/05/21 03:32:12;;;;;;;;;;;;;;;;;;2211464;67;1181;-19
2023/05/21 03:34:42;;;;;;;;;;;;;;;;;;2211529;67;1937;-19
2023/05/21 03:37:12;;;;;;;;;;;;;;;;;;2211009;59;3018;-19
2023/05/21 03:39:42;;;;;;;;;;;;;;;;;;2212468;66;1751;-18
2023/05/21 03:42:13;;;;;;;;;;;;;;;;;;2212052;66;1963;-19
2023/05/21 03:44:43;;;;;;;;;;;;;;;;;;2211979;59;1742;-20
2023/05/21 03:47:13;;;;;;;;;;;;;;;;;;2210562;59;2074;-20
2023/05/21 03:49:43;;;;;;;;;;;;;;;;;;2208279;59;2478;-20
2023/05/21 03:52:13;;;;;;;;;;;;;;;;;;2207527;59;2551;-19
2023/05/21 03:54:44;;;;;;;;;;;;;;;;;;2210649;59;1991;-19
2023/05/21 03:57:14;;;;;;;;;;;;;;;;;;2209778;67;2385;-19
2023/05/21 03:59:44;;;;;;;;;;;;;;;;;;2210645;59;2119;-19
2023/05/21 04:02:15;;;;;;;;;;;;;;;;;;2211322;59;1472;-20
2023/05/21 04:04:46;;;;;;;;;;;;;;;;;;2212096;67;1696;-19
2023/05/21 04:07:17;;;;;;;;;;;;;;;;;;2206374;66;2366;-19
2023/05/21 04:09:48;;;;;;;;;;;;;;;;;;2212652;67;1251;-19
2023/05/21 04:12:19;;;;;;;;;;;;;;;;;;2211898;66;2155;-19
2023/05/21 04:14:49;;;;;;;;;;;;;;;;;;2210821;67;2993;-19
2023/05/21 04:17:19;;;;;;;;;;;;;;;;;;2210639;66;2038;-19
2023/05/21 04:19:49;;;;;;;;;;;;;;;;;;2212464;66;3309;-19
2023/05/21 04:22:25;;;;;;;;;;;;;;;;;;2212396;66;2940;-18
2023/05/21 04:24:55;;;;;;;;;;;;;;;;;;2211609;66;2649;-19
2023/05/21 04:27:29;;;;;;;;;;;;;;;;;;2210864;66;2597;-19
2023/05/21 04:29:59;;;;;;;;;;;;;;;;;;2211952;66;3154;-20
2023/05/21 04:32:33;;;;;;;;;;;;;;;;;;2212234;66;1884;-20
2023/05/21 04:35:04;;;;;;;;;;;;;;;;;;2212326;59;3070;-20
2023/05/21 04:37:35;;;;;;;;;;;;;;;;;;2210055;59;2352;-19
2023/05/21 04:40:05;;;;;;;;;;;;;;;;;;2212300;66;2166;-19
2023/05/21 04:42:35;;;;;;;;;;;;;;;;;;2212301;66;2803;-19
2023/05/21 04:45:06;;;;;;;;;;;;;;;;;;2211374;66;2843;-19
2023/05/21 04:47:36;;;;;;;;;;;;;;;;;;2211291;59;2220;-19
2023/05/21 04:50:07;;;;;;;;;;;;;;;;;;2211629;59;3216;-19
2023/05/21 04:52:39;;;;;;;;;;;;;;;;;;2211343;59;2319;-19
2023/05/21 04:55:09;;;;;;;;;;;;;;;;;;2211810;59;2756;-20
2023/05/21 04:57:39;;;;;;;;;;;;;;;;;;2211502;59;2273;-19
2023/05/21 05:00:10;;;;;;;;;;;;;;;;;;2211194;66;2649;-18
2023/05/21 05:02:40;;;;;;;;;;;;;;;;;;2211502;59;2751;-19
2023/05/21 05:05:11;;;;;;;;;;;;;;;;;;2212428;66;2653;-19
2023/05/21 05:07:41;;;;;;;;;;;;;;;;;;2209941;67;2071;-18
2023/05/21 05:10:11;;;;;;;;;;;;;;;;;;2210706;66;2852;-19
2023/05/21 05:12:41;;;;;;;;;;;;;;;;;;2211761;66;2155;-19
2023/05/21 05:15:11;;;;;;;;;;;;;;;;;;2210744;67;2613;-19
2023/05/21 05:17:49;;;;;;;;;;;;;;;;;;2210533;67;2027;-19
2023/05/21 05:20:19;;;;;;;;;;;;;;;;;;2212043;67;2071;-19
2023/05/21 05:22:49;;;;;;;;;;;;;;;;;;2211306;66;3060;-19
2023/05/21 05:25:20;;;;;;;;;;;;;;;;;;2211251;67;2221;-19
2023/05/21 05:27:50;;;;;;;;;;;;;;;;;;2209923;66;3122;-19
2023/05/21 05:30:20;;;;;;;;;;;;;;;;;;2211483;66;2827;-19
2023/05/21 05:32:50;;;;;;;;;;;;;;;;;;2211077;67;2550;-19
2023/05/21 05:35:21;;;;;;;;;;;;;;;;;;2211912;66;2237;-21
2023/05/21 05:37:51;;;;;;;;;;;;;;;;;;2211025;59;3718;-19
2023/05/21 05:40:21;;;;;;;;;;;;;;;;;;2211426;67;2812;-18
2023/05/21 05:42:54;;;;;;;;;;;;;;;;;;2211078;66;2694;-19
2023/05/21 05:45:25;;;;;;;;;;;;;;;;;;2212323;67;2734;-20
2023/05/21 05:47:55;;;;;;;;;;;;;;;;;;2210335;59;2684;-19
2023/05/21 05:50:26;;;;;;;;;;;;;;;;;;2211697;59;3105;-19
2023/05/21 05:52:56;;;;;;;;;;;;;;;;;;2212237;59;3244;-19
2023/05/21 05:55:26;;;;;;;;;;;;;;;;;;2210623;59;2823;-20
2023/05/21 05:57:56;;;;;;;;;;;;;;;;;;2210899;59;2779;-19
2023/05/21 06:00:27;;;;;;;;;;;;;;;;;;2211361;59;2912;-19
2023/05/21 06:02:57;;;;;;;;;;;;;;;;;;2212290;58;2578;-19
2023/05/21 06:05:27;;;;;;;;;;;;;;;;;;2211614;67;2947;-19
2023/05/21 06:07:57;;;;;;;;;;;;;;;;;;2210391;67;2573;-19
2023/05/21 06:10:27;;;;;;;;;;;;;;;;;;2211474;67;2982;-19
2023/05/21 06:12:58;;;;;;;;;;;;;;;;;;2211846;59;2304;-20
2023/05/21 06:15:28;;;;;;;;;;;;;;;;;;2209487;59;3303;-19
2023/05/21 06:17:59;;;;;;;;;;;;;;;;;;2208451;59;2583;-19
2023/05/21 06:20:29;;;;;;;;;;;;;;;;;;2210132;66;3096;-19
2023/05/21 06:22:59;;;;;;;;;;;;;;;;;;2210839;67;2554;-19
2023/05/21 06:25:30;;;;;;;;;;;;;;;;;;2209462;66;2164;-18
2023/05/21 06:28:00;;;;;;;;;;;;;;;;;;2210627;67;2766;-19
2023/05/21 06:30:31;;;;;;;;;;;;;;;;;;2211508;66;2963;-19
2023/05/21 06:33:01;;;;;;;;;;;;;;;;;;2210945;67;2782;-19
2023/05/21 06:35:33;;;;;;;;;;;;;;;;;;2210246;67;3008;-19
2023/05/21 06:38:03;;;;;;;;;;;;;;;;;;2210373;59;2703;-19
2023/05/21 06:40:34;;;;;;;;;;;;;;;;;;2210220;66;2602;-18
2023/05/21 06:43:04;;;;;;;;;;;;;;;;;;2211595;67;2151;-19
2023/05/21 06:45:34;;;;;;;;;;;;;;;;;;2211642;67;2881;-18
2023/05/21 06:48:05;;;;;;;;;;;;;;;;;;2210181;59;2474;-18
2023/05/21 06:50:35;;;;;;;;;;;;;;;;;;2210828;59;2607;-18
2023/05/21 06:53:05;;;;;;;;;;;;;;;;;;2210973;59;2184;-18
2023/05/21 06:55:36;;;;;;;;;;;;;;;;;;2210581;59;2238;-18
2023/05/21 06:58:06;;;;;;;;;;;;;;;;;;2210643;59;2685;-18
2023/05/21 07:00:36;;;;;;;;;;;;;;;;;;2211139;59;2871;-18
2023/05/21 07:03:06;;;;;;;;;;;;;;;;;;2211004;58;2651;-18
2023/05/21 07:05:36;;;;;;;;;;;;;;;;;;2211997;67;2776;-18
2023/05/21 07:08:06;;;;;;;;;;;;;;;;;;2209953;59;2235;-18
2023/05/21 07:10:37;;;;;;;;;;;;;;;;;;2211420;67;2063;-18
2023/05/21 07:13:07;;;;;;;;;;;;;;;;;;2211777;66;2053;-18
2023/05/21 07:15:37;;;;;;;;;;;;;;;;;;2210595;66;2896;-18
2023/05/21 07:18:07;;;;;;;;;;;;;;;;;;2209269;66;2704;-18
2023/05/21 07:20:38;;;;;;;;;;;;;;;;;;2211638;66;2312;-18
2023/05/21 07:23:08;;;;;;;;;;;;;;;;;;2211418;67;2288;-19
2023/05/21 07:25:38;;;;;;;;;;;;;;;;;;2210497;59;2275;-18
2023/05/21 07:28:08;;;;;;;;;;;;;;;;;;2210215;67;2660;-19
2023/05/21 07:30:38;;;;;;;;;;;;;;;;;;2210166;67;2313;-19
2023/05/21 07:33:09;;;;;;;;;;;;;;;;;;2210901;59;2537;-18
2023/05/21 07:35:39;;;;;;;;;;;;;;;;;;2210382;59;2319;-18
2023/05/21 07:38:10;;;;;;;;;;;;;;;;;;2210762;59;2379;-18
2023/05/21 07:40:40;;;;;;;;;;;;;;;;;;2212132;66;2451;-18
2023/05/21 07:43:11;;;;;;;;;;;;;;;;;;2210996;59;2611;-18
2023/05/21 07:45:50;;;;;;;;;;;;;;;;;;2213969;60;1987;-18
2023/05/21 07:48:21;;;;;;;;;;;;;;;;;;2204728;59;2512;-18
2023/05/21 07:50:51;;;;;;;;;;;;;;;;;;2212005;59;2746;-18
2023/05/21 07:53:21;;;;;;;;;;;;;;;;;;2212039;59;2175;-19
2023/05/21 07:55:52;;;;;;;;;;;;;;;;;;2210985;59;2293;-19
2023/05/21 07:58:22;;;;;;;;;;;;;;;;;;2211854;59;2394;-19
2023/05/21 08:00:56;;;;;;;;;;;;;;;;;;2207731;59;2166;-19
2023/05/21 08:03:29;;;;;;;;;;;;;;;;;;2212420;59;1785;-19
2023/05/21 08:05:59;;;;;;;;;;;;;;;;;;2211733;59;2033;-19
2023/05/21 08:08:30;;;;;;;;;;;;;;;;;;2210652;59;2608;-19
2023/05/21 08:11:00;;;;;;;;;;;;;;;;;;2211410;58;2066;-19
2023/05/21 08:13:30;;;;;;;;;;;;;;;;;;2211246;59;2453;-19
2023/05/21 08:16:01;;;;;;;;;;;;;;;;;;2212018;59;2163;-19
2023/05/21 08:18:31;;;;;;;;;;;;;;;;;;2209907;59;2459;-19
2023/05/21 08:21:01;;;;;;;;;;;;;;;;;;2210760;66;2660;-19
2023/05/21 08:23:31;;;;;;;;;;;;;;;;;;2212964;67;2743;-19
2023/05/21 08:26:02;;;;;;;;;;;;;;;;;;2210998;66;2500;-19
2023/05/21 08:28:32;;;;;;;;;;;;;;;;;;2207665;59;3246;-20
2023/05/21 08:31:02;;;;;;;;;;;;;;;;;;2211817;59;2806;-19
2023/05/21 08:33:37;;;;;;;;;;;;;;;;;;2211846;59;2124;-19
2023/05/21 08:36:07;;;;;;;;;;;;;;;;;;2210670;59;2095;-19
2023/05/21 08:38:38;;;;;;;;;;;;;;;;;;2210392;59;2209;-19
2023/05/21 08:41:09;;;;;;;;;;;;;;;;;;2211325;59;2530;-19
2023/05/21 08:43:40;;;;;;;;;;;;;;;;;;2211176;59;2476;-19
2023/05/21 08:46:10;;;;;;;;;;;;;;;;;;2211005;66;2818;-19
2023/05/21 08:48:41;;;;;;;;;;;;;;;;;;2209907;59;2323;-18
2023/05/21 08:51:12;;;;;;;;;;;;;;;;;;2210788;59;2449;-19
2023/05/21 08:53:44;;;;;;;;;;;;;;;;;;2210949;59;2886;-19
2023/05/21 08:56:15;;;;;;;;;;;;;;;;;;2211510;66;2273;-19
2023/05/21 08:58:46;;;;;;;;;;;;;;;;;;2210905;59;2149;-19
2023/05/21 09:01:18;;;;;;;;;;;;;;;;;;2211582;59;2586;-19
2023/05/21 09:03:49;;;;;;;;;;;;;;;;;;2211421;59;2283;-19
2023/05/21 09:06:20;;;;;;;;;;;;;;;;;;2211572;67;3013;-19
2023/05/21 09:08:57;;;;;;;;;;;;;;;;;;2211156;67;2955;-19
2023/05/21 09:11:28;;;;;;;;;;;;;;;;;;2208185;59;3118;-19
2023/05/21 09:13:58;;;;;;;;;;;;;;;;;;2208796;59;2870;-19
2023/05/21 09:16:29;;;;;;;;;;;;;;;;;;2211578;67;2511;-19
2023/05/21 09:18:59;;;;;;;;;;;;;;;;;;2209763;66;2775;-19
2023/05/21 09:21:30;;;;;;;;;;;;;;;;;;2212100;67;2537;-19
2023/05/21 09:24:00;;;;;;;;;;;;;;;;;;2206570;59;2351;-19
2023/05/21 09:26:31;;;;;;;;;;;;;;;;;;2211343;59;1930;-19
2023/05/21 09:29:01;;;;;;;;;;;;;;;;;;2210233;59;2737;-19
2023/05/21 09:31:31;;;;;;;;;;;;;;;;;;2212323;59;1705;-20
2023/05/21 09:34:02;;;;;;;;;;;;;;;;;;2211571;59;2504;-19
2023/05/21 09:36:36;;;;;;;;;;;;;;;;;;2211425;59;2491;-19
2023/05/21 09:39:14;;;;;;;;;;;;;;;;;;2211470;59;1970;-19
2023/05/21 09:41:45;;;;;;;;;;;;;;;;;;2209414;53;3651;-22
2023/05/21 09:44:15;;;;;;;;;;;;;;;;;;2202370;66;2922;-22
2023/05/21 09:46:45;;;;;;;;;;;;;;;;;;2200629;59;2588;-22
2023/05/21 09:49:23;;;;;;;;;;;;;;;;;;2203499;59;2018;-22
2023/05/21 09:51:57;;;;;;;;;;;;;;;;;;2202805;59;2556;-22
2023/05/21 09:54:32;;;;;;;;;;;;;;;;;;2201200;59;2631;-22
2023/05/21 09:57:02;;;;;;;;;;;;;;;;;;2204435;66;3089;-22
2023/05/21 09:59:38;;;;;;;;;;;;;;;;;;2201768;66;2815;-22
2023/05/21 10:02:15;;;;;;;;;;;;;;;;;;2202078;59;2874;-22
2023/05/21 10:04:47;;;;;;;;;;;;;;;;;;2202096;66;2585;-23
2023/05/21 10:07:24;;;;;;;;;;;;;;;;;;2200600;66;2090;-22
2023/05/21 10:09:56;;;;;;;;;;;;;;;;;;2202682;59;2496;-20
2023/05/21 10:12:26;;;;;;;;;;;;;;;;;;2199261;59;2428;-22
2023/05/21 10:15:01;;;;;;;;;;;;;;;;;;2201745;66;2074;-21
2023/05/21 10:17:32;;;;;;;;;;;;;;;;;;2200657;66;3336;-20
2023/05/21 10:20:03;;;;;;;;;;;;;;;;;;2201111;66;2661;-21
2023/05/21 10:22:34;;;;;;;;;;;;;;;;;;2201297;66;2612;-21
2023/05/21 10:25:05;;;;;;;;;;;;;;;;;;2201975;66;2556;-21
2023/05/21 10:27:36;;;;;;;;;;;;;;;;;;2199546;66;2667;-21
2023/05/21 10:30:07;;;;;;;;;;;;;;;;;;2202286;66;2548;-21
2023/05/21 10:32:39;;;;;;;;;;;;;;;;;;2201076;66;2604;-21
2023/05/21 10:35:10;;;;;;;;;;;;;;;;;;2201029;66;3664;-21
2023/05/21 10:37:42;;;;;;;;;;;;;;;;;;2199932;59;2730;-21
2023/05/21 10:40:12;;;;;;;;;;;;;;;;;;2201332;66;2796;-21
2023/05/21 10:43:07;;;;;;;;;;;;;;;;;;2200475;59;2156;-21
2023/05/21 10:46:02;;;;;;;;;;;;;;;;;;2199787;59;2556;-21
2023/05/21 10:48:51;;;;;;;;;;;;;;;;;;2200434;59;2759;-21
2023/05/21 10:51:33;;;;;;;;;;;;;;;;;;2200152;59;1777;-20
2023/05/21 10:54:03;;;;;;;;;;;;;;;;;;2200253;59;2888;-20
2023/05/21 10:56:52;;;;;;;;;;;;;;;;;;2201301;66;2748;-20
2023/05/21 10:59:39;;;;;;;;;;;;;;;;;;2202019;59;2118;-21
2023/05/21 11:02:11;;;;;;;;;;;;;;;;;;2201125;59;2532;-21
2023/05/21 11:04:44;;;;;;;;;;;;;;;;;;2201265;66;2227;-21
2023/05/21 11:07:44;;;;;;;;;;;;;;;;;;2199927;59;2389;-21
2023/05/21 11:10:33;;;;;;;;;;;;;;;;;;2201382;66;2770;-21
2023/05/21 11:13:04;;;;;;;;;;;;;;;;;;2200803;66;2547;-21
2023/05/21 11:15:53;;;;;;;;;;;;;;;;;;2201647;66;2766;-21
2023/05/21 11:18:29;;;;;;;;;;;;;;;;;;2200325;59;2570;-21
2023/05/21 11:21:03;;;;;;;;;;;;;;;;;;2200658;66;2749;-21
2023/05/21 11:23:49;;;;;;;;;;;;;;;;;;2200719;66;2551;-21
2023/05/21 11:26:23;;;;;;;;;;;;;;;;;;2202299;66;2663;-21
2023/05/21 11:29:03;;;;;;;;;;;;;;;;;;2201734;66;2492;-21
2023/05/21 11:31:36;;;;;;;;;;;;;;;;;;2201998;66;2496;-21
2023/05/21 11:34:27;;;;;;;;;;;;;;;;;;2201543;66;3017;-21
2023/05/21 11:37:16;;;;;;;;;;;;;;;;;;2200878;59;3023;-21
2023/05/21 11:39:46;;;;;;;;;;;;;;;;;;2201588;59;2980;-21
2023/05/21 11:42:30;;;;;;;;;;;;;;;;;;2201198;59;2337;-20
2023/05/21 11:45:02;;;;;;;;;;;;;;;;;;2202570;59;2546;-20
2023/05/21 11:47:33;;;;;;;;;;;;;;;;;;2199612;59;2501;-20
2023/05/21 11:50:03;;;;;;;;;;;;;;;;;;2214917;58;3531;-20
2023/05/21 11:52:33;;;;;;;;;;;;;;;;;;2200019;59;2415;-20
2023/05/21 11:55:04;;;;;;;;;;;;;;;;;;2201943;59;2385;-20
2023/05/21 11:57:34;;;;;;;;;;;;;;;;;;2200377;59;3318;-20
2023/05/21 12:00:12;;;;;;;;;;;;;;;;;;2201169;59;3020;-20
2023/05/21 12:02:50;;;;;;;;;;;;;;;;;;2201915;66;3036;-19
2023/05/21 12:05:23;;;;;;;;;;;;;;;;;;2201566;66;2687;-21
2023/05/21 12:07:54;;;;;;;;;;;;;;;;;;2201050;60;2999;-19
2023/05/21 12:10:24;;;;;;;;;;;;;;;;;;2199688;66;2806;-20
2023/05/21 12:12:55;;;;;;;;;;;;;;;;;;2200605;66;2290;-20
2023/05/21 12:15:25;;;;;;;;;;;;;;;;;;2200327;59;2891;-20
2023/05/21 12:17:56;;;;;;;;;;;;;;;;;;2199948;66;2812;-21
2023/05/21 12:20:27;;;;;;;;;;;;;;;;;;2206656;66;3030;-20
2023/05/21 12:23:00;;;;;;;;;;;;;;;;;;2200630;66;2499;-20
2023/05/21 12:25:30;;;;;;;;;;;;;;;;;;2202060;66;2680;-20
2023/05/21 12:28:02;;;;;;;;;;;;;;;;;;2200560;66;3131;-20
2023/05/21 12:30:32;;;;;;;;;;;;;;;;;;2201155;59;2933;-22
2023/05/21 12:33:03;;;;;;;;;;;;;;;;;;2201950;66;2161;-23
2023/05/21 12:35:33;;;;;;;;;;;;;;;;;;2199810;59;2928;-23
2023/05/21 12:38:03;;;;;;;;;;;;;;;;;;2198263;59;2453;-23
2023/05/21 12:40:38;;;;;;;;;;;;;;;;;;2200391;59;2658;-23
2023/05/21 12:43:09;;;;;;;;;;;;;;;;;;2199298;59;3061;-23
2023/05/21 12:45:39;;;;;;;;;;;;;;;;;;2203540;66;2625;-23
2023/05/21 12:48:10;;;;;;;;;;;;;;;;;;2199349;59;3076;-23
2023/05/21 12:50:41;;;;;;;;;;;;;;;;;;2201694;59;2950;-23
2023/05/21 12:53:12;;;;;;;;;;;;;;;;;;2202264;59;2655;-23
2023/05/21 12:55:42;;;;;;;;;;;;;;;;;;2201200;59;2997;-23
2023/05/21 12:58:13;;;;;;;;;;;;;;;;;;2201775;59;2754;-23
2023/05/21 13:00:44;;;;;;;;;;;;;;;;;;2201372;66;2614;-23
2023/05/21 13:03:15;;;;;;;;;;;;;;;;;;2201627;59;2913;-23
2023/05/21 13:05:45;;;;;;;;;;;;;;;;;;2201718;66;3173;-23
2023/05/21 13:08:15;;;;;;;;;;;;;;;;;;2201161;66;2680;-23
2023/05/21 13:10:46;;;;;;;;;;;;;;;;;;2199934;59;2672;-23
2023/05/21 13:13:16;;;;;;;;;;;;;;;;;;2200573;59;3117;-23
2023/05/21 13:15:46;;;;;;;;;;;;;;;;;;2200609;60;3119;-23
2023/05/21 13:18:16;;;;;;;;;;;;;;;;;;2199550;59;2621;-20
2023/05/21 13:20:47;;;;;;;;;;;;;;;;;;2201021;60;2640;-20
2023/05/21 13:23:17;;;;;;;;;;;;;;;;;;2200765;59;2200;-19
2023/05/21 13:25:47;;;;;;;;;;;;;;;;;;2200782;59;2587;-20
2023/05/21 13:28:18;;;;;;;;;;;;;;;;;;2199063;59;2407;-19
2023/05/21 13:30:51;;;;;;;;;;;;;;;;;;2201355;66;2413;-19
2023/05/21 13:33:23;;;;;;;;;;;;;;;;;;2201168;59;2817;-19
2023/05/21 13:35:53;;;;;;;;;;;;;;;;;;2200847;59;2047;-19
2023/05/21 13:38:23;;;;;;;;;;;;;;;;;;2201949;59;2441;-20
2023/05/21 13:40:53;;;;;;;;;;;;;;;;;;2201461;66;2099;-19
2023/05/21 13:43:27;;;;;;;;;;;;;;;;;;2202562;59;2991;-19
2023/05/21 13:45:57;;;;;;;;;;;;;;;;;;2201336;59;1912;-19
2023/05/21 13:48:27;;;;;;;;;;;;;;;;;;2200616;59;2537;-19
2023/05/21 13:50:57;;;;;;;;;;;;;;;;;;2197087;59;3941;-19
2023/05/21 13:53:27;;;;;;;;;;;;;;;;;;2200580;66;2530;-20
2023/05/21 13:55:58;;;;;;;;;;;;;;;;;;2199131;59;2067;-20
2023/05/21 13:58:33;;;;;;;;;;;;;;;;;;2200936;59;2294;-19
2023/05/21 14:01:06;;;;;;;;;;;;;;;;;;2200974;59;2345;-19
2023/05/21 14:03:36;;;;;;;;;;;;;;;;;;2199931;59;2094;-19
2023/05/21 14:06:07;;;;;;;;;;;;;;;;;;2200538;59;2320;-19
2023/05/21 14:08:37;;;;;;;;;;;;;;;;;;2200104;59;3067;-19
2023/05/21 14:11:07;;;;;;;;;;;;;;;;;;2200213;59;3741;-19
2023/05/21 14:13:37;;;;;;;;;;;;;;;;;;2201690;66;1933;-19
2023/05/21 14:16:07;;;;;;;;;;;;;;;;;;2201587;66;2582;-19
2023/05/21 14:18:38;;;;;;;;;;;;;;;;;;2202490;66;2417;-19
2023/05/21 14:21:08;;;;;;;;;;;;;;;;;;2203599;59;2042;-19
2023/05/21 14:23:38;;;;;;;;;;;;;;;;;;2202966;59;3352;-21
2023/05/21 14:26:08;;;;;;;;;;;;;;;;;;2204304;58;3266;-22
2023/05/21 14:28:38;;;;;;;;;;;;;;;;;;2200513;59;2291;-22
2023/05/21 14:31:09;;;;;;;;;;;;;;;;;;2202509;59;2439;-22
2023/05/21 14:33:39;;;;;;;;;;;;;;;;;;2200967;66;3118;-22
2023/05/21 14:36:09;;;;;;;;;;;;;;;;;;2200155;59;2422;-22
2023/05/21 14:38:39;;;;;;;;;;;;;;;;;;2200358;66;2307;-22
2023/05/21 14:41:10;;;;;;;;;;;;;;;;;;2199369;60;2876;-23
2023/05/21 14:43:40;;;;;;;;;;;;;;;;;;2200146;66;2620;-23
2023/05/21 14:46:10;;;;;;;;;;;;;;;;;;2201687;59;2480;-20
2023/05/21 14:48:40;;;;;;;;;;;;;;;;;;2201597;59;2069;-20
2023/05/21 14:51:12;;;;;;;;;;;;;;;;;;2200407;59;2739;-20
2023/05/21 14:53:42;;;;;;;;;;;;;;;;;;2201800;59;2806;-22
2023/05/21 14:56:12;;;;;;;;;;;;;;;;;;2199723;66;3246;-21
2023/05/21 14:58:43;;;;;;;;;;;;;;;;;;2201460;59;2193;-21
2023/05/21 15:01:19;;;;;;;;;;;;;;;;;;2203277;59;2904;-21
2023/05/21 15:03:49;;;;;;;;;;;;;;;;;;2201732;59;2162;-21
2023/05/21 15:06:20;;;;;;;;;;;;;;;;;;2201555;66;2216;-21
2023/05/21 15:08:50;;;;;;;;;;;;;;;;;;2200627;59;2549;-21
2023/05/21 15:11:20;;;;;;;;;;;;;;;;;;2202881;66;2782;-21
2023/05/21 15:13:50;;;;;;;;;;;;;;;;;;2202327;66;3190;-21
2023/05/21 15:16:20;;;;;;;;;;;;;;;;;;2199972;66;2217;-21
2023/05/21 15:18:51;;;;;;;;;;;;;;;;;;2199113;59;2832;-21
2023/05/21 15:21:24;;;;;;;;;;;;;;;;;;2200776;60;2796;-21
2023/05/21 15:23:55;;;;;;;;;;;;;;;;;;2201185;66;2139;-21
2023/05/21 15:26:25;;;;;;;;;;;;;;;;;;2200108;64;2486;-21
2023/05/21 15:28:55;;;;;;;;;;;;;;;;;;2200128;66;2159;-21
2023/05/21 15:31:26;;;;;;;;;;;;;;;;;;2200428;66;2059;-21
2023/05/21 15:33:59;;;;;;;;;;;;;;;;;;2200349;59;2132;-21
2023/05/21 15:36:29;;;;;;;;;;;;;;;;;;2200231;59;3096;-21
2023/05/21 15:39:02;;;;;;;;;;;;;;;;;;2199646;59;2665;-21
2023/05/21 15:41:38;;;;;;;;;;;;;;;;;;2199627;59;2944;-21
2023/05/21 15:44:11;;;;;;;;;;;;;;;;;;2201470;66;1975;-36
2023/05/21 15:46:42;;;;;;;;;;;;;;;;;;2202091;59;2188;-20
2023/05/21 15:49:12;;;;;;;;;;;;;;;;;;2200808;59;3232;-20
2023/05/21 15:51:43;;;;;;;;;;;;;;;;;;2201386;66;2950;-20
2023/05/21 15:54:13;;;;;;;;;;;;;;;;;;2200877;59;3063;-20
2023/05/21 15:56:46;;;;;;;;;;;;;;;;;;2201127;66;2514;-21
2023/05/21 15:59:17;;;;;;;;;;;;;;;;;;2200799;59;2269;-20
2023/05/21 16:01:47;;;;;;;;;;;;;;;;;;2200043;59;2577;-20
2023/05/21 16:04:20;;;;;;;;;;;;;;;;;;2201494;66;2562;-20
2023/05/21 16:06:50;;;;;;;;;;;;;;;;;;2200031;66;2754;-20
2023/05/21 16:09:21;;;;;;;;;;;;;;;;;;2202618;66;3010;-21
2023/05/21 16:11:51;;;;;;;;;;;;;;;;;;2198938;66;2639;-20
2023/05/21 16:14:22;;;;;;;;;;;;;;;;;;2201674;66;2002;-20
2023/05/21 16:16:55;;;;;;;;;;;;;;;;;;2201714;66;2782;-20
2023/05/21 16:19:25;;;;;;;;;;;;;;;;;;2200903;66;2722;-20
2023/05/21 16:21:56;;;;;;;;;;;;;;;;;;2201804;59;2970;-20
2023/05/21 16:24:26;;;;;;;;;;;;;;;;;;2202583;66;3155;-20
2023/05/21 16:26:56;;;;;;;;;;;;;;;;;;2200419;59;3135;-21
2023/05/21 16:29:26;;;;;;;;;;;;;;;;;;2199642;66;3217;-20
2023/05/21 16:31:57;;;;;;;;;;;;;;;;;;2201270;59;2830;-21
2023/05/21 16:34:27;;;;;;;;;;;;;;;;;;2202258;66;2620;-20
2023/05/21 16:36:57;;;;;;;;;;;;;;;;;;2201878;59;1946;-21
2023/05/21 16:39:27;;;;;;;;;;;;;;;;;;2201089;66;2061;-20
2023/05/21 16:41:58;;;;;;;;;;;;;;;;;;2200840;59;2446;-20
2023/05/21 16:44:30;;;;;;;;;;;;;;;;;;2201418;60;2946;-21
2023/05/21 16:47:01;;;;;;;;;;;;;;;;;;2200795;59;2742;-21
2023/05/21 16:49:31;;;;;;;;;;;;;;;;;;2200359;59;3064;-22
2023/05/21 16:52:02;;;;;;;;;;;;;;;;;;2201217;59;3173;-22
2023/05/21 16:54:35;;;;;;;;;;;;;;;;;;2201715;59;2140;-22
2023/05/21 16:57:05;;;;;;;;;;;;;;;;;;2202180;59;2057;-22
2023/05/21 16:59:35;;;;;;;;;;;;;;;;;;2201356;59;2624;-22
2023/05/21 17:02:07;;;;;;;;;;;;;;;;;;2215481;58;2445;-22
2023/05/21 17:04:37;;;;;;;;;;;;;;;;;;2200676;59;1977;-20
2023/05/21 17:07:14;;;;;;;;;;;;;;;;;;2201545;59;2797;-21
2023/05/21 17:09:44;;;;;;;;;;;;;;;;;;2200341;59;3016;-22
2023/05/21 17:12:14;;;;;;;;;;;;;;;;;;2201538;66;2637;-22
2023/05/21 17:14:44;;;;;;;;;;;;;;;;;;2201787;59;3010;-22
2023/05/21 17:17:15;;;;;;;;;;;;;;;;;;2201313;66;2715;-22
2023/05/21 17:19:45;;;;;;;;;;;;;;;;;;2200084;66;2995;-22
2023/05/21 17:22:15;;;;;;;;;;;;;;;;;;2200525;66;2887;-22
2023/05/21 17:24:45;;;;;;;;;;;;;;;;;;2199866;59;3298;-22
2023/05/21 17:27:18;;;;;;;;;;;;;;;;;;2199129;59;2601;-22
2023/05/21 17:29:49;;;;;;;;;;;;;;;;;;2200745;66;2919;-22
2023/05/21 17:32:22;;;;;;;;;;;;;;;;;;2200527;66;3056;-22